Saga Airport
RJFS : now visible

Airfield :











YOU CAN JOIN US ON...

 
LOGIN :

Register | Disclaimer

   EN    FR    IT 

 









Legend :    VFR   Marginal VFR   IFR   Intensive IFR   Very Intensive IFR
Visi :
Ceiling :
>= 8 km
>= 3000ft
5 to 8 km
1000 to 3000 ft
1500m to 5 km
500 to 1000 ft
800 to 1500m
200 to 500 ft
< 800m
< 200 ft
Symbols :   Thunderstorms  Fog  Heavy snow  Heavy precipitations  Wind > 20 kt







- Airport Elevation : 6 ft
- IATA code : HSG


RJFS - Saga

CURRENT METAR :
  • 190500Z 29007KT 8000 -RA FEW030 SCT060 BKN070 26/24 Q1008

EXPIRED METARs :
  • 190400Z 27006KT 240V300 CAVOK 26/17 Q1008

TAF TAF RJFS
Valid from the 19 at 06:00 until the 20 at 12:00 UTC


190511Z 1906/2012 30007KT 8000 -SHRA FEW010 SCT020 BKN030
BECMG 1906/1908 02005KT
TEMPO 1909/1915 4000 -SHRA BR
TEMPO 1918/2000 3000 SHRA BR
TEMPO 2000/2003 4000 -SHRA BR
No reported NOTAMs for that airfield.



MET'MAP, your aeronautical weather chart ! - Copyright ORBIFLY December 2007 - Disclaimer

ORBIFLY MET'MAP TEAM :

Programming & Development : Alexandra Zaïnal
Concept & Development : Baudouin d'Aumeries
Co-Development & Prog : Marc-Olivier Méhu
Technical & hardware support : Manuel Goepfert

Contact : metmap@orbifly.com




SOURCES & CREDITS :

   NOAA       Earth
Advisory